Flight Track Log - Related Links

Times and Time Zones

All times are in EST time to prevent confusion due to time zone crossing. See the VH-KFN flight status page for this flight to view local times or setup timezone preferences in your user account.

Time Position Orientation Groundspeed Altitude Reporting Facility
EST Latitude Longitude Course Direction KTS MPH feet Rate Location/Type
Tue 05:16:33 PM -20.7151 116.7739 263° West  Level Aus ATC (Calculated)
Tue 05:17:33 PM -20.7248 116.6884 263° West  Level Aus ATC (Calculated)
Tue 05:19:00 PM -20.7335 116.6123 263° West  Level FlightAware Approximate
Tue 05:19:28 PM -20.7339 116.6083 263° West  Level Aus ATC (Calculated)
Tue 05:20:00 PM -20.7394 116.5597 263° West  Level FlightAware Approximate
Tue 05:20:33 PM -20.7424 116.5331 263° West  Level Aus ATC (Calculated)
Tue 05:21:00 PM -20.7430 116.5277 263° West  Level FlightAware Approximate
Tue 05:22:00 PM -20.7510 116.4569 263° West  Level FlightAware Approximate
Tue 05:22:28 PM -20.7583 116.3921 83° East  Level Aus ATC (Calculated)
Tue 05:23:00 PM -20.7569 116.4044 263° West  Level FlightAware Approximate
Tue 05:24:00 PM -20.7673 116.3116 263° West  Level FlightAware Approximate
Tue 05:24:38 PM -20.7720 116.2688 263° West  Level Aus ATC (Calculated)
Tue 05:25:00 PM -20.7731 116.2590 263° West  Level FlightAware Approximate
Tue 05:26:00 PM -20.7800 116.1969 263° West  Level FlightAware Approximate
Tue 05:27:00 PM -20.7858 116.1444 263° West  Level FlightAware Approximate
Tue 05:27:27 PM -20.7899 116.1068 263° West  Level Aus ATC (Calculated)
Tue 05:28:00 PM -20.7916 116.0918 263° West  Level FlightAware Approximate
Tue 05:29:00 PM -20.7989 116.0253 263° West  Level FlightAware Approximate
Tue 05:30:00 PM -20.8047 115.9727 263° West  Level FlightAware Approximate
Tue 05:30:27 PM -20.8092 115.9313 263° West  Level Aus ATC (Calculated)
Tue 05:32:00 PM -20.8181 115.8498 263° West  Level FlightAware Approximate
Tue 05:33:00 PM -20.8238 115.7972 263° West  Level FlightAware Approximate
Tue 05:33:27 PM -20.8306 115.7339 263° West  Level Aus ATC (Calculated)
Tue 05:35:00 PM -20.8394 115.6523 263° West  Level FlightAware Approximate
Tue 05:36:00 PM -20.8451 115.5997 263° West  Level FlightAware Approximate
Tue 05:36:26 PM -20.8571 115.4869 263° West  Level Aus ATC (Calculated)
Tue 05:37:31 PM -20.8615 115.4458 265° West  Level Aus ATC (Calculated)
Tue 05:39:00 PM -20.8644 115.4061 264° West  Level Estimated
Tue 05:40:00 PM -20.8644 115.4061 225° Southwest  Level Estimated
Tue 05:41:00 PM -20.8644 115.4061 225° Southwest  Level Estimated
Tue 05:42:00 PM -20.8644 115.4061 225° Southwest  Level Estimated
Tue 05:43:00 PM -20.8659 115.4046 263° West  Level FlightAware Approximate
Tue 05:44:00 PM -20.8644 115.4061 263° West  Level Estimated
Tue 05:45:00 PM -20.8659 115.4046 263° West  Level FlightAware Approximate
Tue 05:46:00 PM -20.8644 115.4061 263° West  Level Estimated
Tue 05:47:00 PM -20.8659 115.4046 263° West  Level FlightAware Approximate
Tue 05:48:00 PM -20.8644 115.4061 263° West  Level Estimated
Tue 05:49:00 PM -20.8659 115.4046 263° West  Level FlightAware Approximate
Tue 05:50:00 PM -20.8644 115.4061 263° West  Level Estimated
Tue 05:51:00 PM -20.8659 115.4046 263° West  Level FlightAware Approximate
Tue 05:52:00 PM -20.8644 115.4061 263° West  Level Estimated
Tue 05:53:00 PM -20.8659 115.4046 263° West  Level FlightAware Approximate
Tue 05:54:00 PM -20.8644 115.4061 263° West  Level Estimated
Tue 05:55:00 PM -20.8659 115.4046 263° West  Level FlightAware Approximate
Tue 05:56:00 PM -20.8644 115.4061 263° West  Level Estimated
Tue 05:57:00 PM -20.8659 115.4046 263° West  Level FlightAware Approximate
Tue 05:58:00 PM -20.8644 115.4061 263° West  Level Estimated
Tue 07:25:06 PM -20.8292 115.7472 263° West  Level Aus ATC (Calculated)
Tue 07:26:56 PM -20.8384 115.6616 263° West  Level Aus ATC (Calculated)
Tue 07:29:55 PM -20.8659 115.4046 263° West  Level Aus ATC (Calculated)

Login

Don't have an account? Register now (free) for customized features, flight alerts, and more!